createdAt,value
2018-11-26T00:00:31.786Z,1.03
2018-11-26T00:01:07.098Z,0.90
2018-11-26T00:01:42.535Z,0.80
2018-11-26T00:02:17.719Z,1.00
2018-11-26T00:02:53.030Z,0.83
2018-11-26T00:03:28.129Z,0.90
2018-11-26T00:04:03.455Z,0.90
2018-11-26T00:04:38.887Z,0.90
2018-11-26T00:05:14.312Z,0.80
2018-11-26T00:05:49.615Z,0.83
2018-11-26T00:06:24.946Z,0.90
2018-11-26T00:07:00.302Z,0.97
2018-11-26T00:07:35.754Z,0.87
2018-11-26T00:08:12.775Z,0.90
2018-11-26T00:08:48.431Z,0.80
2018-11-26T00:09:23.652Z,0.73
2018-11-26T00:10:08.506Z,0.90
2018-11-26T00:10:54.447Z,0.80
2018-11-26T00:11:32.975Z,0.80
2018-11-26T00:12:08.322Z,0.80
2018-11-26T00:12:44.620Z,0.80
2018-11-26T00:13:19.902Z,0.90
2018-11-26T00:13:55.032Z,0.80
2018-11-26T00:14:30.493Z,0.83
2018-11-26T00:15:05.927Z,0.80
2018-11-26T00:15:41.281Z,0.77
2018-11-26T00:16:16.958Z,0.83
2018-11-26T00:16:52.498Z,0.80
2018-11-26T00:17:27.962Z,0.80
2018-11-26T00:18:03.330Z,0.73
2018-11-26T00:18:38.782Z,0.60
2018-11-26T00:19:14.178Z,0.77
2018-11-26T00:19:49.527Z,0.73
2018-11-26T00:20:24.784Z,0.70
2018-11-26T00:21:00.110Z,0.80
2018-11-26T00:21:35.478Z,0.70
2018-11-26T00:22:10.883Z,0.60
2018-11-26T00:22:46.129Z,0.57
2018-11-26T00:23:21.535Z,0.87
2018-11-26T00:23:56.877Z,0.90
2018-11-26T00:24:32.107Z,0.70
2018-11-26T00:25:08.101Z,0.80
2018-11-26T00:25:43.498Z,0.87
2018-11-26T00:26:19.089Z,0.93
2018-11-26T00:26:54.413Z,0.83
2018-11-26T00:27:29.701Z,0.90
2018-11-26T00:28:05.043Z,0.97
2018-11-26T00:28:40.369Z,0.77
2018-11-26T00:29:15.844Z,1.00
2018-11-26T00:29:51.211Z,1.00
2018-11-26T00:30:26.464Z,0.70
2018-11-26T00:31:01.875Z,0.90
2018-11-26T00:31:37.326Z,0.70
2018-11-26T00:32:12.581Z,0.70
2018-11-26T00:32:48.114Z,0.87
2018-11-26T00:33:23.608Z,0.67
2018-11-26T00:33:58.829Z,0.70
2018-11-26T00:34:34.190Z,1.00
2018-11-26T00:35:09.694Z,0.80
2018-11-26T00:35:45.010Z,0.80
2018-11-26T00:36:20.627Z,1.07
2018-11-26T00:36:56.222Z,1.00
2018-11-26T00:37:31.668Z,1.13
2018-11-26T00:38:06.987Z,0.90
2018-11-26T00:38:42.260Z,0.80
2018-11-26T00:39:17.463Z,0.83
2018-11-26T00:39:52.902Z,0.90
2018-11-26T00:40:28.219Z,0.80
2018-11-26T00:41:03.565Z,0.80
2018-11-26T00:41:39.216Z,0.80
2018-11-26T00:42:14.796Z,0.97
2018-11-26T00:42:50.061Z,0.80
2018-11-26T00:43:25.325Z,0.77
2018-11-26T00:44:01.681Z,0.80
2018-11-26T00:44:37.124Z,1.13
2018-11-26T00:45:13.626Z,0.90
2018-11-26T00:45:49.045Z,0.87
2018-11-26T00:46:24.613Z,0.90
2018-11-26T00:47:00.066Z,0.83
2018-11-26T00:47:35.571Z,1.13
2018-11-26T00:48:10.973Z,1.00
2018-11-26T00:48:46.322Z,1.03
2018-11-26T00:49:21.965Z,0.90
2018-11-26T00:49:57.393Z,0.67
2018-11-26T00:50:32.742Z,1.10
2018-11-26T00:51:08.454Z,1.07
2018-11-26T00:51:43.855Z,0.83
2018-11-26T00:52:19.210Z,0.90
2018-11-26T00:52:54.546Z,0.80
2018-11-26T00:53:30.146Z,1.00
2018-11-26T00:54:05.685Z,0.80
2018-11-26T00:54:40.960Z,1.00
2018-11-26T00:55:16.438Z,1.00
2018-11-26T00:55:51.594Z,1.00
2018-11-26T00:56:26.923Z,1.00
2018-11-26T00:57:02.352Z,1.03
2018-11-26T00:57:37.842Z,1.10
2018-11-26T00:58:13.423Z,0.80
2018-11-26T00:58:48.692Z,1.00
2018-11-26T00:59:24.101Z,0.80
2018-11-26T00:59:59.242Z,1.10
2018-11-26T01:00:34.498Z,1.20
2018-11-26T01:01:09.819Z,1.00
2018-11-26T01:01:45.204Z,1.00
2018-11-26T01:02:20.702Z,0.80
2018-11-26T01:02:56.072Z,0.90
2018-11-26T01:03:31.598Z,1.00
2018-11-26T01:04:07.016Z,1.00
2018-11-26T01:04:42.698Z,1.00
2018-11-26T01:05:30.771Z,0.83
2018-11-26T01:06:06.353Z,0.90
2018-11-26T01:06:41.635Z,0.97
2018-11-26T01:07:17.168Z,0.90
2018-11-26T01:07:52.509Z,0.90
2018-11-26T01:08:27.899Z,0.80
2018-11-26T01:09:03.384Z,0.90
2018-11-26T01:09:38.891Z,0.90
2018-11-26T01:10:14.408Z,1.00
2018-11-26T01:10:50.040Z,1.00
2018-11-26T01:11:25.244Z,0.97
2018-11-26T01:12:00.659Z,0.87
2018-11-26T01:12:36.008Z,0.80
2018-11-26T01:13:11.222Z,0.80
2018-11-26T01:13:46.548Z,0.90
2018-11-26T01:14:21.930Z,0.80
2018-11-26T01:14:57.394Z,1.17
2018-11-26T01:15:32.850Z,1.00
2018-11-26T01:16:08.049Z,0.90
2018-11-26T01:16:43.236Z,0.87
2018-11-26T01:17:18.871Z,0.90
2018-11-26T01:17:54.340Z,0.77
2018-11-26T01:18:29.687Z,0.50
2018-11-26T01:19:04.919Z,0.90
2018-11-26T01:19:40.255Z,0.80
2018-11-26T01:20:15.655Z,0.70
2018-11-26T01:20:51.017Z,0.80
2018-11-26T01:21:26.540Z,1.00
2018-11-26T01:22:01.925Z,0.80
2018-11-26T01:22:37.414Z,0.80
2018-11-26T01:23:12.792Z,0.73
2018-11-26T01:23:48.131Z,0.80
2018-11-26T01:24:23.417Z,0.80
2018-11-26T01:24:59.001Z,0.90
2018-11-26T01:25:34.405Z,0.77
2018-11-26T01:26:09.739Z,0.70
2018-11-26T01:26:45.039Z,0.80
2018-11-26T01:27:20.032Z,0.50
2018-11-26T01:27:55.466Z,0.80
2018-11-26T01:28:30.854Z,1.00
2018-11-26T01:29:06.753Z,0.80
2018-11-26T01:29:42.193Z,1.07
2018-11-26T01:30:17.439Z,0.90
2018-11-26T01:30:52.790Z,0.67
2018-11-26T01:31:28.092Z,0.70
2018-11-26T01:32:03.470Z,0.80
2018-11-26T01:32:38.903Z,0.80
2018-11-26T01:33:14.398Z,0.90
2018-11-26T01:33:49.546Z,0.70
2018-11-26T01:34:25.161Z,0.87
2018-11-26T01:35:00.577Z,0.70
2018-11-26T01:35:35.935Z,0.60
2018-11-26T01:36:11.309Z,0.80
2018-11-26T01:36:47.526Z,0.70
2018-11-26T01:37:22.934Z,0.70
2018-11-26T01:37:58.416Z,0.90
2018-11-26T01:38:33.919Z,0.70
2018-11-26T01:39:10.634Z,0.80
2018-11-26T01:39:46.244Z,0.90
2018-11-26T01:40:28.026Z,0.80
2018-11-26T01:41:03.568Z,0.80
2018-11-26T01:41:39.769Z,1.10
2018-11-26T01:42:15.216Z,1.00
2018-11-26T01:42:51.170Z,0.80
2018-11-26T01:43:26.924Z,0.97
2018-11-26T01:44:02.183Z,1.03
2018-11-26T01:44:37.547Z,0.90
2018-11-26T01:45:13.008Z,1.07
2018-11-26T01:45:48.237Z,0.97
2018-11-26T01:46:23.678Z,1.00
2018-11-26T01:46:58.920Z,1.07
2018-11-26T01:47:34.290Z,1.00
2018-11-26T01:48:09.793Z,0.80
2018-11-26T01:48:45.126Z,1.03
2018-11-26T01:49:20.509Z,0.80
2018-11-26T01:49:56.019Z,0.80
2018-11-26T01:50:31.380Z,1.07
2018-11-26T01:51:07.253Z,0.80
2018-11-26T01:51:42.622Z,0.87
2018-11-26T01:52:18.076Z,0.77
2018-11-26T01:52:53.595Z,0.90
2018-11-26T01:53:28.808Z,0.80
2018-11-26T01:54:04.209Z,0.80
2018-11-26T01:54:39.507Z,0.80
2018-11-26T01:55:14.871Z,0.67
2018-11-26T01:55:50.375Z,0.67
2018-11-26T01:56:25.551Z,0.60
2018-11-26T01:57:00.863Z,0.50
2018-11-26T01:57:36.200Z,0.57
2018-11-26T01:58:11.708Z,0.70
2018-11-26T01:58:46.952Z,0.80
2018-11-26T01:59:22.455Z,0.97
2018-11-26T01:59:57.758Z,0.70
2018-11-26T02:00:33.221Z,0.63
2018-11-26T02:01:08.621Z,0.80
2018-11-26T02:01:43.981Z,0.70
2018-11-26T02:02:19.472Z,0.67
2018-11-26T02:02:55.153Z,0.70
2018-11-26T02:03:30.515Z,0.80
2018-11-26T02:04:05.777Z,0.80
2018-11-26T02:04:41.057Z,0.67
2018-11-26T02:05:16.401Z,0.70
2018-11-26T02:05:51.817Z,0.80
2018-11-26T02:06:27.241Z,0.83
2018-11-26T02:07:02.734Z,0.70
2018-11-26T02:07:37.907Z,0.80
2018-11-26T02:08:13.338Z,1.00
2018-11-26T02:08:48.523Z,0.63
2018-11-26T02:09:23.976Z,0.83
2018-11-26T02:09:59.242Z,0.70
2018-11-26T02:10:34.608Z,0.70
2018-11-26T02:11:10.147Z,0.87
2018-11-26T02:11:45.530Z,0.70
2018-11-26T02:12:21.008Z,0.77
2018-11-26T02:12:56.289Z,0.70
2018-11-26T02:13:31.643Z,0.80
2018-11-26T02:14:07.169Z,0.60
2018-11-26T02:14:42.696Z,0.60
2018-11-26T02:15:28.316Z,0.50
2018-11-26T02:16:03.625Z,0.70
2018-11-26T02:16:38.974Z,0.87
2018-11-26T02:17:14.292Z,0.53
2018-11-26T02:17:49.642Z,0.50
2018-11-26T02:18:25.180Z,0.63
2018-11-26T02:19:00.476Z,0.70
2018-11-26T02:19:35.664Z,0.50
2018-11-26T02:20:12.110Z,0.60
2018-11-26T02:20:47.560Z,0.70
2018-11-26T02:21:22.855Z,0.60
2018-11-26T02:21:58.519Z,0.60
2018-11-26T02:22:33.909Z,0.70
2018-11-26T02:23:09.312Z,0.53
2018-11-26T02:23:45.067Z,0.40
2018-11-26T02:24:20.417Z,0.50
2018-11-26T02:24:55.869Z,0.90
2018-11-26T02:25:31.183Z,0.50
2018-11-26T02:26:06.693Z,0.70
2018-11-26T02:26:41.940Z,0.60
2018-11-26T02:27:17.553Z,0.47
2018-11-26T02:27:53.033Z,0.63
2018-11-26T02:28:28.311Z,0.80
2018-11-26T02:29:03.737Z,0.67
2018-11-26T02:29:39.925Z,0.90
2018-11-26T02:30:15.194Z,0.77
2018-11-26T02:30:50.882Z,0.67
2018-11-26T02:31:26.358Z,0.80
2018-11-26T02:32:01.670Z,0.63
2018-11-26T02:32:36.923Z,0.77
2018-11-26T02:33:12.412Z,0.90
2018-11-26T02:33:48.281Z,0.80
2018-11-26T02:34:23.869Z,0.70
2018-11-26T02:34:59.197Z,0.70
2018-11-26T02:35:34.474Z,0.60
2018-11-26T02:36:09.626Z,0.70
2018-11-26T02:36:45.044Z,0.40
2018-11-26T02:37:20.349Z,0.83
2018-11-26T02:37:55.598Z,1.00
2018-11-26T02:38:30.922Z,0.50
2018-11-26T02:39:07.782Z,0.70
2018-11-26T02:39:43.110Z,0.73
2018-11-26T02:40:26.567Z,1.10
2018-11-26T02:41:01.914Z,0.67
2018-11-26T02:41:37.439Z,0.83
2018-11-26T02:42:13.038Z,0.70
2018-11-26T02:42:48.495Z,0.70
2018-11-26T02:43:23.902Z,0.77
2018-11-26T02:43:59.421Z,0.60
2018-11-26T02:44:34.629Z,0.80
2018-11-26T02:45:10.184Z,0.70
2018-11-26T02:45:45.621Z,0.70
2018-11-26T02:46:21.077Z,0.60
2018-11-26T02:46:56.622Z,0.67
2018-11-26T02:47:32.419Z,0.70
2018-11-26T02:48:08.059Z,0.70
2018-11-26T02:48:43.461Z,0.80
2018-11-26T02:49:18.704Z,0.90
2018-11-26T02:49:54.181Z,0.63
2018-11-26T02:50:29.491Z,0.70
2018-11-26T02:51:04.966Z,0.80
2018-11-26T02:51:40.296Z,0.77
2018-11-26T02:52:15.580Z,0.63
2018-11-26T02:52:50.845Z,0.60
2018-11-26T02:53:26.279Z,0.70
2018-11-26T02:54:01.514Z,0.70
2018-11-26T02:54:36.892Z,0.90
2018-11-26T02:55:12.186Z,1.00
2018-11-26T02:55:47.673Z,0.90
2018-11-26T02:56:23.055Z,0.73
2018-11-26T02:56:58.418Z,0.77
2018-11-26T02:57:33.672Z,0.70
2018-11-26T02:58:09.022Z,0.80
2018-11-26T02:58:44.553Z,1.17
2018-11-26T02:59:19.989Z,0.77
2018-11-26T02:59:55.291Z,0.80
2018-11-26T03:00:30.709Z,0.63
2018-11-26T03:01:06.367Z,0.60
2018-11-26T03:01:41.637Z,0.70
2018-11-26T03:02:17.082Z,0.70
2018-11-26T03:02:52.230Z,0.60
2018-11-26T03:03:27.801Z,0.60
2018-11-26T03:04:03.176Z,0.77
2018-11-26T03:04:38.572Z,0.77
2018-11-26T03:05:17.025Z,0.90
2018-11-26T03:05:52.182Z,0.80
2018-11-26T03:06:27.601Z,0.90
2018-11-26T03:07:02.994Z,0.70
2018-11-26T03:07:38.460Z,1.00
2018-11-26T03:08:13.854Z,0.80
2018-11-26T03:08:49.262Z,0.60
2018-11-26T03:09:24.612Z,0.83
2018-11-26T03:09:59.971Z,0.80
2018-11-26T03:10:35.189Z,0.87
2018-11-26T03:11:10.700Z,0.60
2018-11-26T03:11:46.122Z,0.70
2018-11-26T03:12:21.509Z,0.70
2018-11-26T03:12:56.743Z,0.87
2018-11-26T03:13:32.499Z,0.77
2018-11-26T03:14:08.486Z,0.67
2018-11-26T03:14:44.067Z,0.93
2018-11-26T03:15:19.519Z,0.83
2018-11-26T03:15:54.860Z,1.00
2018-11-26T03:16:30.522Z,0.70
2018-11-26T03:17:05.881Z,0.73
2018-11-26T03:17:41.404Z,0.80
2018-11-26T03:18:17.062Z,0.70
2018-11-26T03:18:52.462Z,0.70
2018-11-26T03:19:27.821Z,0.73
2018-11-26T03:20:03.433Z,0.70
2018-11-26T03:20:38.790Z,0.73
2018-11-26T03:21:14.171Z,0.70
2018-11-26T03:21:49.627Z,0.80
2018-11-26T03:22:25.103Z,0.70
2018-11-26T03:23:00.445Z,0.67
2018-11-26T03:23:35.868Z,0.53
2018-11-26T03:24:11.370Z,0.60
2018-11-26T03:24:46.727Z,0.73
2018-11-26T03:25:22.168Z,0.80
2018-11-26T03:25:57.617Z,0.60
2018-11-26T03:26:33.028Z,0.60
2018-11-26T03:27:08.567Z,0.60
2018-11-26T03:27:44.287Z,0.50
2018-11-26T03:28:19.609Z,0.70
2018-11-26T03:28:55.215Z,0.50
2018-11-26T03:29:30.936Z,0.60
2018-11-26T03:30:10.492Z,0.70
2018-11-26T03:30:46.043Z,0.70
2018-11-26T03:31:21.512Z,0.60
2018-11-26T03:31:57.120Z,0.60
2018-11-26T03:32:32.636Z,0.80
2018-11-26T03:33:09.645Z,0.63
2018-11-26T03:33:45.143Z,0.67
2018-11-26T03:34:20.682Z,0.70
2018-11-26T03:34:56.130Z,0.63
2018-11-26T03:35:32.063Z,0.50
2018-11-26T03:36:07.727Z,0.60
2018-11-26T03:36:43.296Z,0.80
2018-11-26T03:37:18.811Z,0.60
2018-11-26T03:37:54.358Z,0.53
2018-11-26T03:38:40.007Z,0.60
2018-11-26T03:39:15.500Z,0.60
2018-11-26T03:39:51.214Z,0.50
2018-11-26T03:40:26.593Z,0.67
2018-11-26T03:41:02.182Z,0.60
2018-11-26T03:41:37.507Z,0.43
2018-11-26T03:42:12.939Z,0.60
2018-11-26T03:42:48.456Z,0.57
2018-11-26T03:43:23.934Z,0.50
2018-11-26T03:43:59.510Z,0.80
2018-11-26T03:44:34.994Z,0.67
2018-11-26T03:45:17.177Z,0.60
2018-11-26T03:45:52.632Z,0.67
2018-11-26T03:46:27.936Z,0.90
2018-11-26T03:47:03.545Z,0.67
2018-11-26T03:47:39.097Z,0.70
2018-11-26T03:48:14.494Z,0.50
2018-11-26T03:48:49.959Z,0.83
2018-11-26T03:49:25.485Z,0.60
2018-11-26T03:50:01.036Z,0.50
2018-11-26T03:50:36.284Z,0.83
2018-11-26T03:51:11.832Z,0.70
2018-11-26T03:51:47.342Z,0.87
2018-11-26T03:52:22.783Z,0.60
2018-11-26T03:52:58.298Z,0.60
2018-11-26T03:53:33.758Z,0.60
2018-11-26T03:54:09.484Z,0.70
2018-11-26T03:54:45.172Z,0.70
2018-11-26T03:55:20.426Z,0.60
2018-11-26T03:55:55.776Z,1.00
2018-11-26T03:56:31.432Z,0.90
2018-11-26T03:57:06.930Z,0.70
2018-11-26T03:57:42.712Z,0.70
2018-11-26T03:58:18.065Z,0.80
2018-11-26T03:58:53.395Z,0.80
2018-11-26T03:59:28.915Z,0.80
2018-11-26T04:00:04.403Z,0.70
2018-11-26T04:00:39.683Z,1.00
2018-11-26T04:01:15.120Z,0.60
2018-11-26T04:01:50.327Z,0.80
2018-11-26T04:02:25.892Z,0.60
2018-11-26T04:03:01.193Z,0.70
2018-11-26T04:03:36.576Z,0.70
2018-11-26T04:04:12.019Z,0.53
2018-11-26T04:04:47.750Z,0.70
2018-11-26T04:05:23.492Z,0.67
2018-11-26T04:05:59.037Z,0.70
2018-11-26T04:06:34.474Z,0.70
2018-11-26T04:07:10.185Z,0.60
2018-11-26T04:07:45.558Z,0.80
2018-11-26T04:08:21.390Z,0.73
2018-11-26T04:08:57.058Z,0.70
2018-11-26T04:09:32.363Z,0.80
2018-11-26T04:10:09.961Z,0.70
2018-11-26T04:10:45.568Z,0.53
2018-11-26T04:11:21.137Z,0.50
2018-11-26T04:11:56.556Z,0.60
2018-11-26T04:12:32.127Z,0.80
2018-11-26T04:13:07.660Z,0.50
2018-11-26T04:13:43.376Z,0.50
2018-11-26T04:14:18.609Z,0.50
2018-11-26T04:14:54.093Z,0.53
2018-11-26T04:15:29.581Z,0.60
2018-11-26T04:16:05.140Z,0.70
2018-11-26T04:16:40.677Z,0.67
2018-11-26T04:17:16.645Z,0.60
2018-11-26T04:17:52.686Z,0.70
2018-11-26T04:18:28.337Z,0.70
2018-11-26T04:19:03.982Z,0.70
2018-11-26T04:19:39.397Z,0.43
2018-11-26T04:20:14.913Z,0.53
2018-11-26T04:20:50.512Z,0.63
2018-11-26T04:21:26.006Z,0.60
2018-11-26T04:22:01.759Z,0.60
2018-11-26T04:22:37.495Z,0.70
2018-11-26T04:23:12.760Z,0.50
2018-11-26T04:23:48.356Z,0.60
2018-11-26T04:24:23.873Z,0.50
2018-11-26T04:24:59.086Z,0.60
2018-11-26T04:25:34.730Z,0.50
2018-11-26T04:26:10.058Z,0.57
2018-11-26T04:26:45.569Z,0.70
2018-11-26T04:27:20.841Z,0.40
2018-11-26T04:27:56.106Z,0.43
2018-11-26T04:28:31.576Z,0.40
2018-11-26T04:29:07.769Z,0.60
2018-11-26T04:29:43.196Z,0.43
2018-11-26T04:30:18.708Z,0.40
2018-11-26T04:30:54.104Z,0.50
2018-11-26T04:31:29.701Z,0.53
2018-11-26T04:32:05.245Z,0.50
2018-11-26T04:32:41.526Z,0.40
2018-11-26T04:33:16.720Z,0.60
2018-11-26T04:33:52.186Z,0.60
2018-11-26T04:34:27.991Z,0.60
2018-11-26T04:35:03.915Z,0.40
2018-11-26T04:35:39.822Z,0.40
2018-11-26T04:36:15.394Z,0.50
2018-11-26T04:36:51.144Z,0.50
2018-11-26T04:37:26.722Z,0.30
2018-11-26T04:38:02.281Z,0.60
2018-11-26T04:38:37.646Z,0.40
2018-11-26T04:39:13.080Z,0.50
2018-11-26T04:39:48.841Z,0.60
2018-11-26T04:40:24.388Z,0.30
2018-11-26T04:40:59.776Z,0.50
2018-11-26T04:41:35.230Z,0.50
2018-11-26T04:42:10.645Z,0.53
2018-11-26T04:42:46.261Z,0.50
2018-11-26T04:43:21.839Z,0.40
2018-11-26T04:43:57.175Z,0.60
2018-11-26T04:44:32.480Z,0.50
2018-11-26T04:45:09.868Z,0.50
2018-11-26T04:45:45.016Z,0.50
2018-11-26T04:46:20.603Z,0.53
2018-11-26T04:46:56.069Z,0.57
2018-11-26T04:47:31.570Z,0.43
2018-11-26T04:48:06.806Z,0.40
2018-11-26T04:48:42.126Z,0.40
2018-11-26T04:49:17.367Z,0.70
2018-11-26T04:49:52.810Z,0.30
2018-11-26T04:50:28.374Z,0.37
2018-11-26T04:51:03.577Z,0.40
2018-11-26T04:51:38.936Z,0.67
2018-11-26T04:52:14.298Z,0.50
2018-11-26T04:52:50.009Z,0.70
2018-11-26T04:53:25.660Z,0.47
2018-11-26T04:54:01.328Z,0.40
2018-11-26T04:54:37.000Z,0.80
2018-11-26T04:55:13.634Z,0.60
2018-11-26T04:55:48.846Z,0.60
2018-11-26T04:56:24.675Z,0.50
2018-11-26T04:57:00.240Z,0.50
2018-11-26T04:57:35.589Z,0.50
2018-11-26T04:58:10.946Z,0.50
2018-11-26T04:58:46.328Z,0.50
2018-11-26T04:59:22.113Z,0.50
2018-11-26T04:59:57.455Z,0.50
2018-11-26T05:00:32.837Z,0.93
2018-11-26T05:01:08.292Z,0.70
2018-11-26T05:01:43.750Z,0.70
2018-11-26T05:02:18.944Z,0.70
2018-11-26T05:02:54.458Z,0.47
2018-11-26T05:03:29.889Z,0.60
2018-11-26T05:04:05.409Z,0.60
2018-11-26T05:04:40.739Z,0.57
2018-11-26T05:05:16.280Z,0.80
2018-11-26T05:05:51.541Z,0.50
2018-11-26T05:06:27.024Z,0.70
2018-11-26T05:07:02.872Z,0.70
2018-11-26T05:07:38.237Z,0.50
2018-11-26T05:08:13.469Z,0.70
2018-11-26T05:08:49.302Z,0.70
2018-11-26T05:09:24.703Z,0.70
2018-11-26T05:09:59.945Z,0.60
2018-11-26T05:10:35.612Z,0.70
2018-11-26T05:11:10.785Z,0.60
2018-11-26T05:11:46.462Z,0.53
2018-11-26T05:12:21.705Z,0.67
2018-11-26T05:12:57.044Z,0.60
2018-11-26T05:13:32.280Z,0.57
2018-11-26T05:14:07.715Z,0.70
2018-11-26T05:14:43.182Z,0.47
2018-11-26T05:15:18.636Z,0.60
2018-11-26T05:15:53.982Z,0.50
2018-11-26T05:16:29.205Z,0.70
2018-11-26T05:17:04.523Z,0.60
2018-11-26T05:17:39.887Z,0.60
2018-11-26T05:18:15.352Z,0.70
2018-11-26T05:18:50.813Z,0.60
2018-11-26T05:19:26.030Z,0.50
2018-11-26T05:20:01.592Z,0.60
2018-11-26T05:20:36.856Z,0.50
2018-11-26T05:21:12.123Z,0.63
2018-11-26T05:21:47.516Z,0.63
2018-11-26T05:22:22.773Z,0.60
2018-11-26T05:22:58.156Z,0.70
2018-11-26T05:23:33.539Z,0.60
2018-11-26T05:24:09.121Z,0.60
2018-11-26T05:24:44.252Z,0.60
2018-11-26T05:25:19.649Z,0.60
2018-11-26T05:25:54.905Z,0.40
2018-11-26T05:26:30.201Z,0.50
2018-11-26T05:27:05.669Z,0.87
2018-11-26T05:27:41.193Z,0.40
2018-11-26T05:28:16.452Z,0.50
2018-11-26T05:28:51.676Z,0.40
2018-11-26T05:29:27.063Z,0.67
2018-11-26T05:30:02.259Z,0.60
2018-11-26T05:30:37.703Z,0.43
2018-11-26T05:31:12.931Z,0.50
2018-11-26T05:31:48.264Z,0.53
2018-11-26T05:32:23.576Z,0.60
2018-11-26T05:32:58.693Z,0.73
2018-11-26T05:33:34.255Z,0.50
2018-11-26T05:34:09.596Z,0.60
2018-11-26T05:34:45.189Z,0.60
2018-11-26T05:35:20.431Z,0.80
2018-11-26T05:35:55.920Z,0.60
2018-11-26T05:36:31.319Z,0.43
2018-11-26T05:37:07.305Z,0.40
2018-11-26T05:37:42.651Z,0.50
2018-11-26T05:38:17.995Z,0.60
2018-11-26T05:38:53.567Z,0.60
2018-11-26T05:39:28.711Z,0.50
2018-11-26T05:40:04.407Z,0.60
2018-11-26T05:40:39.631Z,0.50
2018-11-26T05:41:15.320Z,0.60
2018-11-26T05:41:50.480Z,0.70
2018-11-26T05:42:28.842Z,0.60
2018-11-26T05:43:01.196Z,0.60
2018-11-26T05:43:36.634Z,0.80
2018-11-26T05:44:12.087Z,0.50
2018-11-26T05:44:47.452Z,0.50
2018-11-26T05:45:22.651Z,0.63
2018-11-26T05:45:57.887Z,0.60
2018-11-26T05:46:33.347Z,0.70
2018-11-26T05:47:08.711Z,0.50
2018-11-26T05:47:44.293Z,0.60
2018-11-26T05:48:19.808Z,0.50
2018-11-26T05:48:55.246Z,0.60
2018-11-26T05:49:30.501Z,0.80
2018-11-26T05:50:07.559Z,0.60
2018-11-26T05:50:42.772Z,0.60
2018-11-26T05:51:18.196Z,0.70
2018-11-26T05:51:53.463Z,0.60
2018-11-26T05:52:29.057Z,0.60
2018-11-26T05:53:04.401Z,0.60
2018-11-26T05:53:39.848Z,0.50
2018-11-26T05:54:15.405Z,0.63
2018-11-26T05:54:50.979Z,0.50
2018-11-26T05:55:26.344Z,0.40
2018-11-26T05:56:01.830Z,0.50
2018-11-26T05:56:37.266Z,0.73
2018-11-26T05:57:12.656Z,0.70
2018-11-26T05:57:48.766Z,0.50
2018-11-26T05:58:24.152Z,0.47
2018-11-26T05:58:59.582Z,0.40
2018-11-26T05:59:34.943Z,0.57
2018-11-26T06:00:13.758Z,0.50
2018-11-26T06:00:49.180Z,0.57
2018-11-26T06:01:24.611Z,0.60
2018-11-26T06:02:00.047Z,0.57
2018-11-26T06:02:35.715Z,0.53
2018-11-26T06:03:10.951Z,0.60
2018-11-26T06:03:46.285Z,0.53
2018-11-26T06:04:22.516Z,0.80
2018-11-26T06:04:58.781Z,0.57
2018-11-26T06:05:34.097Z,0.60
2018-11-26T06:06:09.476Z,0.50
2018-11-26T06:06:45.323Z,0.50
2018-11-26T06:07:20.555Z,0.60
2018-11-26T06:07:55.962Z,0.40
2018-11-26T06:08:31.249Z,0.47
2018-11-26T06:09:09.149Z,0.50
2018-11-26T06:09:44.460Z,0.63
2018-11-26T06:10:19.733Z,0.40
2018-11-26T06:10:55.357Z,0.50
2018-11-26T06:11:30.606Z,0.50
2018-11-26T06:12:06.010Z,0.60
2018-11-26T06:12:41.388Z,0.40
2018-11-26T06:13:16.808Z,0.50
2018-11-26T06:13:52.255Z,0.63
2018-11-26T06:14:27.538Z,0.50
2018-11-26T06:15:02.914Z,0.60
2018-11-26T06:15:38.156Z,0.50
2018-11-26T06:16:13.507Z,0.50
2018-11-26T06:16:53.699Z,0.40
2018-11-26T06:17:24.114Z,0.50
2018-11-26T06:17:59.299Z,0.60
2018-11-26T06:18:34.802Z,0.30
2018-11-26T06:19:10.310Z,0.63
2018-11-26T06:19:45.738Z,0.50
2018-11-26T06:20:21.206Z,0.50
2018-11-26T06:20:56.517Z,0.60
2018-11-26T06:21:31.700Z,0.57
2018-11-26T06:22:07.096Z,0.53
2018-11-26T06:22:43.747Z,0.43
2018-11-26T06:23:19.032Z,0.60
2018-11-26T06:23:54.607Z,0.30
2018-11-26T06:24:29.864Z,0.50
2018-11-26T06:25:05.956Z,0.40
2018-11-26T06:25:41.293Z,0.50
2018-11-26T06:26:16.539Z,0.40
2018-11-26T06:26:52.061Z,0.50
2018-11-26T06:27:27.181Z,0.40
2018-11-26T06:28:02.439Z,0.67
2018-11-26T06:28:37.514Z,0.40
2018-11-26T06:29:13.041Z,0.30
2018-11-26T06:29:48.301Z,0.50
2018-11-26T06:30:23.623Z,0.40
2018-11-26T06:30:58.982Z,0.33
2018-11-26T06:31:34.268Z,0.30
2018-11-26T06:32:09.657Z,0.43
2018-11-26T06:32:45.119Z,0.40
2018-11-26T06:33:20.473Z,0.50
2018-11-26T06:33:55.802Z,0.40
2018-11-26T06:34:31.146Z,0.50
2018-11-26T06:35:10.043Z,0.40
2018-11-26T06:35:45.452Z,0.40
2018-11-26T06:36:20.778Z,0.20
2018-11-26T06:36:55.928Z,0.40
2018-11-26T06:37:31.204Z,0.40
2018-11-26T06:38:07.704Z,0.40
2018-11-26T06:38:43.016Z,0.33
2018-11-26T06:39:18.303Z,0.33
2018-11-26T06:39:53.537Z,0.30
2018-11-26T06:40:28.930Z,0.33
2018-11-26T06:41:04.169Z,0.30
2018-11-26T06:41:39.970Z,0.30
2018-11-26T06:42:15.311Z,0.40
2018-11-26T06:42:50.690Z,0.37
2018-11-26T06:43:25.915Z,0.40
2018-11-26T06:44:01.439Z,0.50
2018-11-26T06:44:36.933Z,0.30
2018-11-26T06:45:15.421Z,0.40
2018-11-26T06:45:50.684Z,0.50
2018-11-26T06:46:26.044Z,0.40
2018-11-26T06:47:01.409Z,0.40
2018-11-26T06:47:36.568Z,0.40
2018-11-26T06:48:11.977Z,0.30
2018-11-26T06:48:47.274Z,0.30
2018-11-26T06:49:22.644Z,0.43
2018-11-26T06:49:57.995Z,0.30
2018-11-26T06:50:33.459Z,0.30
2018-11-26T06:51:09.103Z,0.30
2018-11-26T06:51:44.748Z,0.30
2018-11-26T06:52:20.215Z,0.40
2018-11-26T06:52:55.439Z,0.40
2018-11-26T06:53:30.695Z,0.50
2018-11-26T06:54:06.030Z,0.30
2018-11-26T06:54:41.528Z,0.43
2018-11-26T06:55:19.706Z,0.40
2018-11-26T06:55:54.930Z,0.40
2018-11-26T06:56:30.381Z,0.40
2018-11-26T06:57:06.170Z,0.40
2018-11-26T06:57:41.287Z,0.30
2018-11-26T06:58:16.714Z,0.40
2018-11-26T06:58:52.240Z,0.30
2018-11-26T06:59:27.621Z,0.40
2018-11-26T07:00:02.843Z,0.37
2018-11-26T07:00:38.077Z,0.50
2018-11-26T07:01:13.461Z,0.30
2018-11-26T07:01:49.615Z,0.33
2018-11-26T07:02:24.757Z,0.37
2018-11-26T07:03:00.193Z,0.30
2018-11-26T07:03:35.435Z,0.43
2018-11-26T07:04:10.914Z,0.50
2018-11-26T07:04:46.185Z,0.40
2018-11-26T07:05:23.259Z,0.50
2018-11-26T07:05:58.516Z,0.43
2018-11-26T07:06:33.817Z,0.37
2018-11-26T07:07:09.197Z,0.30
2018-11-26T07:07:44.765Z,0.40
2018-11-26T07:08:20.058Z,0.40
2018-11-26T07:08:55.580Z,0.30
2018-11-26T07:09:31.297Z,0.37
2018-11-26T07:10:07.210Z,0.43
2018-11-26T07:10:42.879Z,0.50
2018-11-26T07:11:18.489Z,0.30
2018-11-26T07:11:54.009Z,0.63
2018-11-26T07:12:29.564Z,0.30
2018-11-26T07:13:05.001Z,0.23
2018-11-26T07:13:40.284Z,0.40
2018-11-26T07:14:15.642Z,0.33
2018-11-26T07:14:50.962Z,0.30
2018-11-26T07:15:26.531Z,0.37
2018-11-26T07:16:02.001Z,0.50
2018-11-26T07:16:37.703Z,0.30
2018-11-26T07:17:12.940Z,0.40
2018-11-26T07:17:48.190Z,0.40
2018-11-26T07:18:23.544Z,0.30
2018-11-26T07:18:58.845Z,0.30
2018-11-26T07:19:34.239Z,0.60
2018-11-26T07:20:11.839Z,0.40
2018-11-26T07:20:47.033Z,0.30
2018-11-26T07:21:22.249Z,0.50
2018-11-26T07:21:57.466Z,0.23
2018-11-26T07:22:32.733Z,0.50
2018-11-26T07:23:08.378Z,0.20
2018-11-26T07:23:43.899Z,0.40
2018-11-26T07:24:19.260Z,0.37
2018-11-26T07:24:54.524Z,0.30
2018-11-26T07:25:29.992Z,0.40
2018-11-26T07:26:05.274Z,0.30
2018-11-26T07:26:40.570Z,0.30
2018-11-26T07:27:15.906Z,0.40
2018-11-26T07:27:54.692Z,0.30
2018-11-26T07:28:30.073Z,0.40
2018-11-26T07:29:05.993Z,0.40
2018-11-26T07:29:41.639Z,0.50
2018-11-26T07:30:19.201Z,0.20
2018-11-26T07:30:54.538Z,0.43
2018-11-26T07:31:29.948Z,0.30
2018-11-26T07:32:05.102Z,0.33
2018-11-26T07:32:40.409Z,0.33
2018-11-26T07:33:15.745Z,0.30
2018-11-26T07:33:50.770Z,0.40
2018-11-26T07:34:26.354Z,0.40
2018-11-26T07:35:01.621Z,0.30
2018-11-26T07:35:37.440Z,0.27
2018-11-26T07:36:12.683Z,0.30
2018-11-26T07:36:48.132Z,0.40
2018-11-26T07:37:23.362Z,0.30
2018-11-26T07:37:58.578Z,0.40
2018-11-26T07:38:33.855Z,0.30
2018-11-26T07:39:10.940Z,0.40
2018-11-26T07:39:46.300Z,0.50
2018-11-26T07:40:24.021Z,0.40
2018-11-26T07:40:59.637Z,0.43
2018-11-26T07:41:34.910Z,0.20
2018-11-26T07:42:10.532Z,0.40
2018-11-26T07:42:50.230Z,0.50
2018-11-26T07:43:25.581Z,0.30
2018-11-26T07:44:01.251Z,0.30
2018-11-26T07:44:36.588Z,0.33
2018-11-26T07:45:16.325Z,0.30
2018-11-26T07:45:51.613Z,0.40
2018-11-26T07:46:26.891Z,0.33
2018-11-26T07:47:02.302Z,0.40
2018-11-26T07:47:37.683Z,0.30
2018-11-26T07:48:14.049Z,0.30
2018-11-26T07:48:49.244Z,0.20
2018-11-26T07:49:24.647Z,0.40
2018-11-26T07:50:00.182Z,0.30
2018-11-26T07:50:36.279Z,0.30
2018-11-26T07:51:11.633Z,0.30
2018-11-26T07:51:47.151Z,0.30
2018-11-26T07:52:22.461Z,0.30
2018-11-26T07:52:57.775Z,0.30
2018-11-26T07:53:33.115Z,0.40
2018-11-26T07:54:08.535Z,0.43